createdAt,value
2023-01-09T00:00:29.149Z,11.21
2023-01-09T00:02:56.782Z,11.15
2023-01-09T00:05:24.552Z,11.14
2023-01-09T00:07:53.493Z,11.19
2023-01-09T00:10:21.070Z,11.16
2023-01-09T00:12:48.589Z,10.92
2023-01-09T00:15:16.338Z,10.77
2023-01-09T00:17:43.913Z,10.84
2023-01-09T00:20:11.887Z,10.81
2023-01-09T00:22:39.446Z,10.75
2023-01-09T00:25:09.333Z,10.82
2023-01-09T00:27:37.226Z,10.80
2023-01-09T00:30:05.721Z,10.92
2023-01-09T00:32:33.264Z,10.98
2023-01-09T00:35:00.777Z,10.98
2023-01-09T00:37:28.312Z,11.10
2023-01-09T00:39:55.826Z,11.01
2023-01-09T00:42:30.458Z,11.07
2023-01-09T00:45:03.981Z,11.01
2023-01-09T00:47:36.563Z,10.90
2023-01-09T00:50:10.437Z,10.73
2023-01-09T00:52:40.470Z,10.51
2023-01-09T00:55:09.979Z,10.34
2023-01-09T00:57:38.939Z,10.24
2023-01-09T01:00:09.661Z,10.27
2023-01-09T01:02:37.290Z,10.19
2023-01-09T01:05:06.073Z,9.84
2023-01-09T01:07:33.700Z,8.95
2023-01-09T01:10:01.256Z,9.16
2023-01-09T01:12:28.803Z,9.17
2023-01-09T01:14:57.741Z,9.12
2023-01-09T01:17:25.315Z,9.17
2023-01-09T01:19:52.837Z,9.14
2023-01-09T01:22:20.418Z,9.07
2023-01-09T01:24:48.051Z,9.21
2023-01-09T01:27:15.570Z,9.17
2023-01-09T01:29:43.315Z,9.21
2023-01-09T01:32:12.173Z,9.30
2023-01-09T01:34:39.980Z,9.44
2023-01-09T01:37:07.560Z,9.33
2023-01-09T01:39:36.315Z,9.24
2023-01-09T01:42:04.163Z,9.01
2023-01-09T01:45:12.417Z,8.86
2023-01-09T01:47:52.414Z,8.88
2023-01-09T01:50:28.768Z,8.59
2023-01-09T01:53:09.308Z,8.58
2023-01-09T01:55:41.738Z,8.72
2023-01-09T01:58:13.955Z,8.77
2023-01-09T02:00:46.387Z,8.84
2023-01-09T02:03:19.418Z,8.92
2023-01-09T02:05:47.131Z,9.02
2023-01-09T02:08:14.888Z,9.08
2023-01-09T02:10:43.808Z,9.11
2023-01-09T02:13:13.489Z,9.11
2023-01-09T02:15:57.241Z,9.17
2023-01-09T02:18:40.260Z,9.30
2023-01-09T02:21:20.440Z,9.33
2023-01-09T02:24:10.643Z,9.32
2023-01-09T02:27:05.815Z,9.33
2023-01-09T02:30:08.800Z,9.29
2023-01-09T02:32:45.140Z,9.39
2023-01-09T02:35:35.004Z,9.39
2023-01-09T02:38:17.201Z,9.34
2023-01-09T02:40:52.391Z,9.20
2023-01-09T02:43:20.708Z,9.20
2023-01-09T02:45:49.621Z,9.21
2023-01-09T02:48:17.213Z,9.15
2023-01-09T02:50:53.277Z,9.17
2023-01-09T02:53:45.268Z,9.10
2023-01-09T02:56:28.360Z,9.16
2023-01-09T02:59:19.532Z,9.18
2023-01-09T03:02:01.509Z,9.20
2023-01-09T03:04:42.977Z,9.18
2023-01-09T03:07:21.509Z,9.21
2023-01-09T03:09:55.897Z,9.37
2023-01-09T03:12:29.535Z,9.50
2023-01-09T03:15:01.870Z,9.61
2023-01-09T03:17:37.004Z,9.73
2023-01-09T03:20:09.386Z,9.74
2023-01-09T03:22:39.635Z,9.65
2023-01-09T03:25:07.863Z,9.72
2023-01-09T03:27:35.573Z,9.78
2023-01-09T03:30:04.058Z,9.76
2023-01-09T03:32:32.996Z,9.78
2023-01-09T03:35:00.565Z,9.72
2023-01-09T03:37:28.091Z,9.71
2023-01-09T03:39:55.698Z,9.63
2023-01-09T03:42:23.268Z,9.64
2023-01-09T03:44:50.879Z,9.60
2023-01-09T03:47:18.391Z,9.58
2023-01-09T03:49:47.271Z,9.68
2023-01-09T03:52:14.784Z,9.80
2023-01-09T03:54:42.316Z,9.86
2023-01-09T03:57:09.862Z,9.77
2023-01-09T03:59:37.420Z,9.57
2023-01-09T04:02:05.162Z,9.51
2023-01-09T04:04:32.751Z,9.42
2023-01-09T04:07:01.615Z,9.40
2023-01-09T04:09:29.265Z,9.38
2023-01-09T04:11:56.756Z,9.33
2023-01-09T04:14:24.482Z,9.34
2023-01-09T04:16:52.024Z,9.32
2023-01-09T04:19:19.718Z,9.37
2023-01-09T04:21:47.204Z,9.19
2023-01-09T04:24:17.420Z,9.23
2023-01-09T04:26:44.921Z,9.17
2023-01-09T04:29:12.433Z,9.23
2023-01-09T04:31:40.039Z,9.21
2023-01-09T04:34:07.615Z,9.30
2023-01-09T04:36:35.160Z,9.32
2023-01-09T04:39:03.543Z,9.34
2023-01-09T04:41:32.474Z,9.40
2023-01-09T04:44:00.007Z,9.49
2023-01-09T04:46:27.521Z,9.49
2023-01-09T04:48:55.044Z,9.42
2023-01-09T04:51:22.549Z,9.56
2023-01-09T04:53:50.062Z,9.52
2023-01-09T04:56:17.624Z,9.68
2023-01-09T04:58:46.619Z,9.71
2023-01-09T05:01:16.895Z,9.75
2023-01-09T05:03:44.549Z,9.79
2023-01-09T05:06:12.189Z,9.69
2023-01-09T05:08:39.856Z,9.65
2023-01-09T05:11:07.405Z,9.78
2023-01-09T05:13:35.014Z,9.69
2023-01-09T05:16:04.273Z,9.83
2023-01-09T05:18:32.410Z,9.93
2023-01-09T05:21:00.280Z,9.95
2023-01-09T05:23:27.803Z,10.05
2023-01-09T05:25:55.352Z,10.07
2023-01-09T05:28:22.972Z,10.09
2023-01-09T05:30:50.829Z,10.19
2023-01-09T05:33:19.746Z,10.08
2023-01-09T05:35:47.276Z,9.87
2023-01-09T05:38:14.875Z,9.89
2023-01-09T05:40:42.589Z,9.85
2023-01-09T05:43:10.110Z,9.75
2023-01-09T05:45:37.662Z,9.62
2023-01-09T05:48:05.692Z,9.62
2023-01-09T05:50:34.621Z,9.58
2023-01-09T05:53:02.220Z,9.54
2023-01-09T05:55:29.798Z,9.56
2023-01-09T05:57:57.304Z,9.54
2023-01-09T06:00:25.878Z,9.45
2023-01-09T06:02:53.448Z,9.38
2023-01-09T06:05:21.162Z,9.38
2023-01-09T06:07:50.035Z,9.44
2023-01-09T06:10:17.857Z,9.56
2023-01-09T06:12:48.252Z,9.60
2023-01-09T06:15:16.967Z,9.39
2023-01-09T06:17:44.479Z,9.49
2023-01-09T06:20:12.265Z,9.54
2023-01-09T06:22:39.804Z,9.42
2023-01-09T06:25:09.672Z,9.45
2023-01-09T06:27:37.265Z,9.42
2023-01-09T06:30:06.110Z,9.47
2023-01-09T06:32:33.662Z,9.44
2023-01-09T06:35:01.222Z,9.47
2023-01-09T06:37:28.794Z,9.47
2023-01-09T06:39:56.700Z,9.49
2023-01-09T06:42:25.589Z,9.64
2023-01-09T06:44:53.206Z,9.63
2023-01-09T06:47:20.820Z,9.77
2023-01-09T06:49:48.609Z,9.69
2023-01-09T06:52:16.092Z,9.71
2023-01-09T06:54:43.593Z,9.50
2023-01-09T06:57:12.292Z,9.39
2023-01-09T06:59:41.139Z,9.41
2023-01-09T07:02:17.825Z,9.57
2023-01-09T07:04:45.559Z,9.68
2023-01-09T07:07:13.678Z,9.77
2023-01-09T07:09:41.387Z,9.75
2023-01-09T07:12:09.019Z,9.60
2023-01-09T07:14:36.539Z,9.58
2023-01-09T07:17:05.401Z,9.65
2023-01-09T07:19:33.009Z,9.60
2023-01-09T07:22:00.538Z,9.73
2023-01-09T07:24:28.128Z,9.64
2023-01-09T07:26:55.682Z,9.70
2023-01-09T07:29:23.213Z,9.68
2023-01-09T07:31:50.941Z,9.64
2023-01-09T07:34:20.041Z,9.70
2023-01-09T07:36:47.619Z,9.48
2023-01-09T07:39:18.010Z,9.52
2023-01-09T07:41:46.289Z,9.56
2023-01-09T07:44:14.759Z,9.45
2023-01-09T07:46:42.349Z,9.39
2023-01-09T07:49:09.995Z,9.43
2023-01-09T07:51:38.854Z,9.37
2023-01-09T07:54:06.814Z,9.53
2023-01-09T07:56:34.343Z,9.53
2023-01-09T07:59:04.204Z,9.45
2023-01-09T08:01:31.752Z,9.32
2023-01-09T08:03:59.308Z,9.39
2023-01-09T08:06:26.828Z,9.40
2023-01-09T08:08:55.719Z,9.58
2023-01-09T08:11:23.821Z,9.67
2023-01-09T08:13:51.882Z,9.55
2023-01-09T08:16:19.643Z,9.76
2023-01-09T08:18:49.624Z,9.89
2023-01-09T08:21:17.130Z,9.91
2023-01-09T08:23:44.724Z,9.99
2023-01-09T08:26:13.634Z,9.93
2023-01-09T08:28:41.267Z,9.84
2023-01-09T08:31:09.211Z,9.77
2023-01-09T08:33:37.756Z,9.96
2023-01-09T08:36:07.129Z,9.85
2023-01-09T08:38:34.743Z,9.77
2023-01-09T08:41:02.343Z,9.65
2023-01-09T08:43:31.338Z,9.63
2023-01-09T08:46:00.614Z,9.65
2023-01-09T08:48:28.307Z,9.73
2023-01-09T08:50:55.836Z,9.75
2023-01-09T08:53:23.489Z,9.89
2023-01-09T08:55:51.001Z,10.07
2023-01-09T08:58:18.531Z,10.22
2023-01-09T09:00:47.412Z,10.37
2023-01-09T09:03:15.268Z,10.41
2023-01-09T09:05:42.887Z,10.29
2023-01-09T09:08:10.489Z,10.26
2023-01-09T09:10:38.051Z,10.19
2023-01-09T09:13:06.646Z,10.01
2023-01-09T09:15:34.841Z,10.07
2023-01-09T09:18:06.081Z,9.97
2023-01-09T09:20:38.408Z,9.98
2023-01-09T09:23:06.429Z,9.86
2023-01-09T09:25:34.397Z,9.88
2023-01-09T09:28:01.999Z,9.69
2023-01-09T09:30:29.633Z,9.62
2023-01-09T09:32:57.183Z,9.50
2023-01-09T09:35:28.666Z,9.68
2023-01-09T09:37:58.227Z,9.52
2023-01-09T09:40:56.001Z,9.47
2023-01-09T09:43:48.437Z,9.41
2023-01-09T09:46:32.982Z,9.54
2023-01-09T09:49:07.844Z,9.44
2023-01-09T09:51:56.164Z,9.20
2023-01-09T09:54:32.360Z,8.99
2023-01-09T09:57:03.888Z,8.85
2023-01-09T09:59:34.389Z,8.75
2023-01-09T10:02:14.632Z,8.51
2023-01-09T10:04:51.189Z,8.52
2023-01-09T10:07:27.948Z,8.40
2023-01-09T10:10:00.395Z,8.17
2023-01-09T10:12:31.582Z,8.16
2023-01-09T10:15:03.157Z,8.02
2023-01-09T10:17:48.529Z,7.73
2023-01-09T10:20:45.731Z,8.00
2023-01-09T10:23:38.700Z,8.03
2023-01-09T10:26:16.572Z,8.08
2023-01-09T10:29:05.560Z,8.08
2023-01-09T10:31:45.649Z,8.16
2023-01-09T10:34:30.009Z,8.39
2023-01-09T10:37:06.547Z,8.13
2023-01-09T10:39:43.591Z,8.44
2023-01-09T10:42:21.628Z,8.23
2023-01-09T10:44:56.571Z,8.43
2023-01-09T10:47:31.882Z,8.55
2023-01-09T10:50:01.901Z,8.50
2023-01-09T10:52:36.352Z,8.47
2023-01-09T10:55:17.406Z,8.77
2023-01-09T10:57:48.959Z,8.65
2023-01-09T11:00:22.362Z,8.53
2023-01-09T11:02:52.213Z,8.53
2023-01-09T11:05:24.695Z,8.59
2023-01-09T11:07:58.310Z,8.51
2023-01-09T11:10:45.697Z,9.70
2023-01-09T11:13:18.440Z,11.48
2023-01-09T11:15:46.079Z,10.94
2023-01-09T11:18:20.909Z,12.81
2023-01-09T11:20:48.800Z,12.99
2023-01-09T11:23:28.710Z,13.96
2023-01-09T11:25:59.981Z,12.05
2023-01-09T11:28:28.529Z,11.16
2023-01-09T11:30:59.335Z,10.76
2023-01-09T11:33:30.396Z,10.53
2023-01-09T11:36:06.469Z,10.50
2023-01-09T11:38:48.640Z,10.14
2023-01-09T11:41:22.083Z,10.02
2023-01-09T11:43:52.707Z,9.81
2023-01-09T11:46:38.694Z,9.66
2023-01-09T11:49:21.757Z,9.66
2023-01-09T11:52:13.547Z,9.87
2023-01-09T11:54:48.267Z,9.91
2023-01-09T11:57:20.161Z,9.96
2023-01-09T11:59:47.811Z,10.64
2023-01-09T12:02:53.439Z,11.71
2023-01-09T12:05:34.714Z,12.90
2023-01-09T12:08:21.888Z,13.93
2023-01-09T12:11:12.343Z,13.83
2023-01-09T12:14:09.190Z,12.82
2023-01-09T12:16:48.597Z,11.92
2023-01-09T12:19:41.997Z,11.44
2023-01-09T12:22:22.390Z,10.92
2023-01-09T12:25:10.085Z,10.42
2023-01-09T12:27:56.714Z,10.16
2023-01-09T12:30:42.643Z,9.84
2023-01-09T12:33:32.010Z,9.56
2023-01-09T12:36:14.122Z,9.33
2023-01-09T12:38:48.199Z,9.24
2023-01-09T12:41:54.303Z,9.41
2023-01-09T12:44:48.377Z,9.27
2023-01-09T12:47:41.105Z,9.43
2023-01-09T12:50:28.545Z,9.59
2023-01-09T12:53:10.982Z,9.55
2023-01-09T12:55:43.416Z,9.56
2023-01-09T12:58:30.365Z,9.47
2023-01-09T13:01:03.826Z,9.51
2023-01-09T13:03:41.968Z,9.27
2023-01-09T13:06:16.011Z,9.33
2023-01-09T13:08:52.524Z,9.30
2023-01-09T13:11:28.305Z,9.22
2023-01-09T13:14:04.641Z,9.18
2023-01-09T13:16:37.398Z,9.12
2023-01-09T13:19:16.677Z,8.93
2023-01-09T13:21:45.760Z,8.89
2023-01-09T13:24:22.400Z,8.86
2023-01-09T13:26:56.399Z,8.90
2023-01-09T13:29:29.434Z,8.86
2023-01-09T13:32:23.041Z,8.63
2023-01-09T13:34:55.180Z,8.44
2023-01-09T13:37:26.864Z,8.00
2023-01-09T13:39:57.554Z,7.72
2023-01-09T13:42:26.253Z,7.24
2023-01-09T13:45:08.721Z,6.86
2023-01-09T13:47:36.448Z,6.44
2023-01-09T13:50:27.052Z,6.41
2023-01-09T13:52:55.954Z,6.40
2023-01-09T13:55:31.513Z,6.65
2023-01-09T13:58:19.754Z,6.64
2023-01-09T14:00:50.835Z,6.60
2023-01-09T14:03:25.152Z,6.80
2023-01-09T14:06:16.266Z,6.84
2023-01-09T14:08:46.610Z,6.92
2023-01-09T14:11:22.498Z,6.89
2023-01-09T14:14:06.785Z,6.89
2023-01-09T14:16:36.295Z,7.13
2023-01-09T14:19:20.883Z,7.17
2023-01-09T14:21:54.860Z,7.28
2023-01-09T14:24:28.287Z,7.43
2023-01-09T14:26:58.079Z,7.61
2023-01-09T14:29:40.981Z,7.81
2023-01-09T14:32:37.257Z,7.97
2023-01-09T14:35:15.208Z,8.15
2023-01-09T14:37:59.040Z,8.30
2023-01-09T14:40:27.334Z,8.21
2023-01-09T14:43:07.984Z,8.25
2023-01-09T14:45:38.201Z,8.43
2023-01-09T14:48:11.235Z,8.35
2023-01-09T14:50:44.779Z,8.35
2023-01-09T14:53:20.195Z,8.36
2023-01-09T14:55:52.386Z,8.44
2023-01-09T14:58:22.807Z,8.47
2023-01-09T15:01:00.227Z,8.52
2023-01-09T15:03:34.390Z,8.59
2023-01-09T15:06:03.491Z,8.44
2023-01-09T15:08:34.156Z,8.40
2023-01-09T15:11:02.397Z,8.48
2023-01-09T15:13:36.322Z,8.29
2023-01-09T15:16:07.100Z,8.22
2023-01-09T15:18:42.873Z,8.08
2023-01-09T15:21:19.737Z,7.68
2023-01-09T15:23:49.015Z,7.80
2023-01-09T15:26:26.428Z,7.72
2023-01-09T15:29:01.580Z,7.79
2023-01-09T15:31:29.914Z,7.54
2023-01-09T15:33:57.525Z,7.66
2023-01-09T15:36:28.123Z,7.61
2023-01-09T15:38:59.209Z,7.46
2023-01-09T15:41:29.653Z,7.73
2023-01-09T15:43:57.363Z,7.89
2023-01-09T15:46:25.031Z,7.61
2023-01-09T15:48:54.347Z,7.82
2023-01-09T15:51:22.852Z,7.78
2023-01-09T15:53:51.335Z,7.79
2023-01-09T15:56:23.437Z,7.69
2023-01-09T15:58:53.061Z,7.64
2023-01-09T16:01:28.101Z,7.71
2023-01-09T16:04:03.859Z,7.69
2023-01-09T16:06:36.424Z,7.70
2023-01-09T16:09:14.770Z,7.59
2023-01-09T16:11:48.555Z,7.65
2023-01-09T16:14:21.964Z,7.70
2023-01-09T16:17:02.142Z,7.74
2023-01-09T16:19:32.009Z,7.78
2023-01-09T16:22:01.510Z,7.85
2023-01-09T16:24:39.312Z,7.94
2023-01-09T16:27:28.416Z,7.86
2023-01-09T16:29:58.636Z,8.05
2023-01-09T16:32:29.244Z,8.14
2023-01-09T16:34:59.792Z,8.23
2023-01-09T16:37:29.215Z,8.19
2023-01-09T16:40:22.839Z,8.29
2023-01-09T16:42:57.670Z,8.28
2023-01-09T16:45:26.385Z,8.32
2023-01-09T16:47:54.666Z,8.28
2023-01-09T16:50:22.175Z,8.21
2023-01-09T16:53:14.633Z,8.23
2023-01-09T16:55:43.058Z,8.32
2023-01-09T16:58:17.046Z,8.22
2023-01-09T17:00:46.017Z,8.46
2023-01-09T17:03:14.936Z,8.45
2023-01-09T17:05:42.918Z,8.42
2023-01-09T17:08:21.371Z,8.51
2023-01-09T17:10:49.124Z,8.46
2023-01-09T17:13:18.066Z,8.41
2023-01-09T17:15:46.664Z,8.37
2023-01-09T17:18:16.031Z,8.33
2023-01-09T17:20:47.070Z,8.36
2023-01-09T17:23:15.062Z,8.37
2023-01-09T17:25:43.937Z,8.40
2023-01-09T17:28:20.273Z,8.34
2023-01-09T17:30:48.170Z,8.34
2023-01-09T17:33:18.043Z,8.19
2023-01-09T17:35:45.992Z,8.21
2023-01-09T17:38:14.123Z,8.07
2023-01-09T17:40:42.343Z,8.06
2023-01-09T17:43:12.256Z,8.06
2023-01-09T17:45:42.169Z,8.07
2023-01-09T17:48:21.168Z,8.09
2023-01-09T17:50:49.619Z,8.05
2023-01-09T17:53:17.251Z,8.06
2023-01-09T17:55:44.807Z,8.13
2023-01-09T17:58:24.819Z,7.99
2023-01-09T18:00:58.979Z,8.05
2023-01-09T18:03:29.164Z,8.06
2023-01-09T18:05:57.162Z,8.04
2023-01-09T18:08:27.345Z,8.00
2023-01-09T18:10:54.959Z,8.11
2023-01-09T18:13:22.634Z,8.01
2023-01-09T18:15:50.258Z,8.03
2023-01-09T18:18:19.434Z,8.02
2023-01-09T18:20:47.110Z,8.07
2023-01-09T18:23:14.783Z,8.02
2023-01-09T18:25:43.633Z,8.07
2023-01-09T18:28:13.127Z,8.11
2023-01-09T18:30:42.007Z,8.29
2023-01-09T18:33:09.942Z,8.41
2023-01-09T18:35:41.241Z,8.43
2023-01-09T18:38:08.912Z,8.49
2023-01-09T18:40:36.771Z,8.36
2023-01-09T18:43:05.242Z,8.48
2023-01-09T18:45:33.314Z,8.26
2023-01-09T18:48:01.025Z,8.35
2023-01-09T18:50:28.877Z,8.18
2023-01-09T18:52:58.052Z,8.20
2023-01-09T18:55:25.689Z,8.28
2023-01-09T18:57:55.730Z,8.25
2023-01-09T19:00:23.748Z,8.28
2023-01-09T19:02:51.430Z,8.16
2023-01-09T19:05:19.166Z,8.19
2023-01-09T19:07:47.532Z,8.11
2023-01-09T19:10:18.314Z,8.14
2023-01-09T19:12:45.924Z,8.24
2023-01-09T19:15:14.836Z,8.14
2023-01-09T19:17:42.481Z,8.11
2023-01-09T19:20:11.485Z,8.22
2023-01-09T19:22:40.156Z,8.22
2023-01-09T19:25:08.298Z,8.22
2023-01-09T19:27:37.645Z,8.23
2023-01-09T19:30:07.045Z,8.03
2023-01-09T19:32:34.797Z,8.05
2023-01-09T19:35:02.491Z,8.11
2023-01-09T19:37:30.127Z,8.14
2023-01-09T19:39:57.747Z,8.03
2023-01-09T19:42:25.814Z,8.04
2023-01-09T19:44:56.998Z,8.01
2023-01-09T19:47:24.637Z,7.83
2023-01-09T19:49:52.288Z,7.91
2023-01-09T19:52:20.141Z,7.67
2023-01-09T19:54:48.021Z,7.60
2023-01-09T19:57:17.012Z,7.68
2023-01-09T19:59:44.910Z,7.63
2023-01-09T20:02:13.874Z,7.63
2023-01-09T20:04:41.530Z,7.73
2023-01-09T20:07:09.238Z,7.71
2023-01-09T20:09:37.047Z,7.58
2023-01-09T20:12:05.197Z,7.39
2023-01-09T20:14:34.162Z,7.24
2023-01-09T20:17:01.690Z,7.26
2023-01-09T20:19:30.659Z,7.17
2023-01-09T20:21:58.617Z,7.26
2023-01-09T20:24:26.279Z,7.20
2023-01-09T20:26:53.832Z,7.21
2023-01-09T20:29:21.352Z,7.21
2023-01-09T20:31:49.022Z,7.27
2023-01-09T20:34:16.553Z,7.25
2023-01-09T20:36:45.545Z,7.29
2023-01-09T20:39:13.431Z,7.10
2023-01-09T20:41:41.051Z,7.15
2023-01-09T20:44:12.498Z,7.21
2023-01-09T20:46:42.570Z,7.19
2023-01-09T20:49:12.914Z,7.21
2023-01-09T20:51:43.299Z,7.13
2023-01-09T20:54:12.467Z,7.14
2023-01-09T20:56:40.044Z,7.23
2023-01-09T20:59:12.326Z,7.19
2023-01-09T21:01:39.920Z,7.07
2023-01-09T21:04:07.775Z,7.15
2023-01-09T21:06:36.177Z,7.16
2023-01-09T21:09:04.975Z,7.01
2023-01-09T21:11:34.331Z,7.04
2023-01-09T21:14:01.921Z,7.01
2023-01-09T21:16:29.599Z,7.15
2023-01-09T21:18:57.323Z,7.10
2023-01-09T21:21:25.801Z,7.27
2023-01-09T21:23:56.027Z,7.33
2023-01-09T21:26:26.293Z,7.38
2023-01-09T21:28:57.503Z,7.36
2023-01-09T21:31:27.506Z,7.36
2023-01-09T21:33:55.803Z,7.45
2023-01-09T21:36:23.351Z,7.42
2023-01-09T21:38:51.921Z,7.54
2023-01-09T21:41:21.344Z,7.59
2023-01-09T21:43:49.306Z,7.70
2023-01-09T21:46:19.228Z,7.74
2023-01-09T21:48:46.825Z,7.98
2023-01-09T21:51:14.390Z,7.76
2023-01-09T21:53:41.964Z,7.92
2023-01-09T21:56:09.576Z,8.02
2023-01-09T21:58:37.494Z,7.94
2023-01-09T22:01:05.586Z,8.02
2023-01-09T22:03:34.599Z,7.86
2023-01-09T22:06:03.481Z,7.93
2023-01-09T22:08:32.349Z,7.93
2023-01-09T22:10:59.970Z,7.96
2023-01-09T22:13:29.123Z,7.88
2023-01-09T22:16:03.191Z,7.88
2023-01-09T22:18:31.260Z,7.93
2023-01-09T22:21:00.566Z,8.07
2023-01-09T22:23:28.843Z,8.02
2023-01-09T22:25:57.492Z,8.08
2023-01-09T22:28:25.035Z,8.22
2023-01-09T22:30:52.558Z,8.33
2023-01-09T22:33:20.152Z,8.17
2023-01-09T22:35:47.780Z,8.14
2023-01-09T22:38:16.779Z,7.90
2023-01-09T22:40:44.447Z,7.99
2023-01-09T22:43:12.068Z,8.07
2023-01-09T22:45:39.730Z,7.96
2023-01-09T22:48:07.399Z,8.05
2023-01-09T22:50:35.494Z,8.03
2023-01-09T22:53:03.102Z,8.08
2023-01-09T22:55:33.145Z,8.10
2023-01-09T22:58:00.745Z,8.01
2023-01-09T23:00:28.296Z,7.82
2023-01-09T23:02:55.897Z,7.81
2023-01-09T23:05:23.529Z,7.93
2023-01-09T23:07:51.123Z,7.73
2023-01-09T23:10:18.993Z,7.80
2023-01-09T23:12:47.992Z,7.75
2023-01-09T23:15:15.658Z,7.57
2023-01-09T23:17:43.331Z,7.57
2023-01-09T23:20:11.772Z,7.57
2023-01-09T23:22:40.438Z,7.55
2023-01-09T23:25:09.136Z,7.44
2023-01-09T23:27:36.751Z,7.41
2023-01-09T23:30:07.070Z,7.25
2023-01-09T23:32:34.780Z,7.17
2023-01-09T23:35:02.431Z,6.93
2023-01-09T23:37:30.098Z,6.87
2023-01-09T23:39:57.716Z,6.86
2023-01-09T23:42:25.314Z,6.97
2023-01-09T23:44:52.918Z,7.09
2023-01-09T23:47:21.892Z,7.04
2023-01-09T23:49:49.577Z,7.19
2023-01-09T23:52:17.260Z,7.32
2023-01-09T23:54:44.957Z,7.37
2023-01-09T23:57:12.636Z,7.30
2023-01-09T23:59:40.287Z,7.35
